Time;durP1;ratioP1;P1;durP2;ratioP2;P2;SDS_P1;SDS_P2;PMS_P1;PMS_P2;Temp;Humidity;BMP_temperature;BMP_pressure;BME280_temperature;BME280_humidity;BME280_pressure;Samples;Min_cycle;Max_cycle;Signal;HPM_P1;HPM_P2
2022/09/20 16:06:52;;;;;;;3.63;0.90;;;17.60;90.70;;;;;;5342886;23;19922;-66
2022/09/20 16:09:19;;;;;;;3.90;1.00;;;17.50;90.90;;;;;;4952552;28;20462;-66
2022/09/20 16:11:47;;;;;;;4.47;1.27;;;17.50;91.40;;;;;;4952835;28;20090;-71
2022/09/20 16:14:13;;;;;;;3.35;1.10;;;17.60;91.60;;;;;;4942974;29;20095;-65
2022/09/20 16:16:40;;;;;;;4.00;1.10;;;17.60;91.80;;;;;;4955388;28;20050;-65
2022/09/20 16:19:22;;;;;;;9.27;1.67;;;17.40;92.20;;;;;;4957227;28;20082;-70
2022/09/20 16:21:53;;;;;;;5.60;2.30;;;17.30;92.20;;;;;;4955316;28;20043;-70
2022/09/20 16:24:23;;;;;;;6.32;1.83;;;17.20;92.60;;;;;;4955464;28;20108;-70
2022/09/20 16:26:50;;;;;;;7.72;1.65;;;17.20;92.90;;;;;;4951216;29;20059;-70
2022/09/20 16:29:17;;;;;;;6.32;1.65;;;17.20;93.10;;;;;;4956557;28;20051;-63
2022/09/20 16:31:46;;;;;;;4.05;1.40;;;17.00;93.40;;;;;;4942738;28;20059;-63
2022/09/20 16:34:15;;;;;;;4.40;1.50;;;16.90;93.80;;;;;;4958505;28;20047;-62
2022/09/20 16:36:44;;;;;;;4.60;1.50;;;16.80;94.00;;;;;;4949337;28;20065;-62
2022/09/20 16:39:13;;;;;;;2.58;1.00;;;16.70;94.40;;;;;;4941727;29;20055;-63
2022/09/20 16:41:40;;;;;;;4.80;1.67;;;16.60;94.80;;;;;;4958325;28;20115;-63
2022/09/20 16:44:07;;;;;;;5.97;1.40;;;16.50;95.20;;;;;;4954601;28;20087;-62
2022/09/20 16:46:36;;;;;;;5.95;1.25;;;16.40;95.60;;;;;;4954216;28;20098;-63
2022/09/20 16:49:05;;;;;;;8.02;2.13;;;16.40;96.10;;;;;;4944137;28;20528;-63
2022/09/20 16:51:34;;;;;;;8.48;1.65;;;16.30;96.60;;;;;;4954794;28;20059;-63
2022/09/20 16:54:02;;;;;;;4.15;1.23;;;16.20;97.10;;;;;;4953590;28;20078;-62
2022/09/20 16:56:32;;;;;;;8.73;1.75;;;16.10;97.50;;;;;;4968500;28;20545;-63
2022/09/20 16:59:00;;;;;;;5.13;1.33;;;16.10;98.10;;;;;;4965586;28;20060;-63
2022/09/20 17:01:26;;;;;;;5.25;1.10;;;16.00;98.60;;;;;;4966669;28;20051;-63
2022/09/20 17:03:54;;;;;;;5.63;1.88;;;15.90;99.10;;;;;;4963760;28;20047;-63
2022/09/20 17:06:21;;;;;;;5.53;1.33;;;15.80;99.70;;;;;;4951415;28;20402;-63
2022/09/20 17:08:51;;;;;;;4.40;1.13;;;15.80;99.90;;;;;;4966720;28;20055;-64
2022/09/20 17:11:20;;;;;;;6.78;1.80;;;15.70;99.90;;;;;;4964261;28;20462;-62
2022/09/20 17:13:50;;;;;;;8.63;2.25;;;15.60;99.90;;;;;;4965338;28;20051;-63
2022/09/20 17:16:19;;;;;;;7.85;1.67;;;15.50;99.90;;;;;;4964022;28;20494;-62
2022/09/20 17:18:46;;;;;;;6.18;1.55;;;15.50;99.90;;;;;;4951713;28;20085;-63
2022/09/20 17:21:15;;;;;;;11.80;1.92;;;15.40;99.90;;;;;;4972523;28;20050;-63
2022/09/20 17:23:43;;;;;;;6.10;1.55;;;15.30;99.90;;;;;;4966446;28;20078;-63
2022/09/20 17:26:13;;;;;;;9.10;1.35;;;15.20;99.90;;;;;;4965611;28;20515;-64
2022/09/20 17:28:42;;;;;;;7.75;1.83;;;15.20;99.90;;;;;;4967209;28;20051;-63
2022/09/20 17:31:13;;;;;;;4.75;1.10;;;15.10;99.90;;;;;;4965794;28;20044;-64
2022/09/20 17:33:40;;;;;;;5.65;1.40;;;15.10;99.90;;;;;;4949936;28;20483;-63
2022/09/20 17:36:08;;;;;;;5.47;1.60;;;15.00;99.90;;;;;;4949727;28;20051;-62
2022/09/20 17:38:37;;;;;;;6.82;1.63;;;14.90;99.90;;;;;;4966280;28;20055;-63
2022/09/20 17:41:07;;;;;;;8.25;1.50;;;14.80;99.90;;;;;;4965218;28;20110;-63
2022/09/20 17:43:34;;;;;;;4.00;1.40;;;14.70;99.90;;;;;;4948158;28;20054;-62
2022/09/20 17:46:06;;;;;;;5.07;1.40;;;14.60;99.90;;;;;;4964146;28;20043;-64
2022/09/20 17:48:35;;;;;;;5.63;1.55;;;14.50;99.90;;;;;;4966249;28;20420;-62
2022/09/20 17:51:02;;;;;;;4.70;1.50;;;14.40;99.90;;;;;;4965080;28;20134;-63
2022/09/20 17:53:31;;;;;;;7.45;2.10;;;14.30;99.90;;;;;;4948549;28;20055;-63
2022/09/20 17:56:00;;;;;;;6.53;1.90;;;14.20;99.90;;;;;;4964291;28;20047;-63
2022/09/20 17:58:27;;;;;;;9.10;1.52;;;14.00;99.90;;;;;;4965248;28;20145;-63
2022/09/20 18:00:57;;;;;;;6.93;1.70;;;14.00;99.90;;;;;;4948427;28;20086;-63
2022/09/20 18:03:24;;;;;;;7.43;1.70;;;13.80;99.90;;;;;;4966911;28;20051;-62
2022/09/20 18:05:52;;;;;;;4.85;1.42;;;13.70;99.90;;;;;;4946150;28;20315;-63
2022/09/20 18:08:20;;;;;;;5.28;1.90;;;13.60;99.90;;;;;;4966038;28;20086;-63
2022/09/20 18:10:57;;;;;;;9.07;1.90;;;13.50;99.90;;;;;;4950127;28;20109;-63
2022/09/20 18:13:26;;;;;;;11.73;2.17;;;13.50;99.90;;;;;;4964434;28;20581;-63
2022/09/20 18:15:53;;;;;;;4.50;1.45;;;13.40;99.90;;;;;;4964113;28;20047;-62
2022/09/20 18:18:20;;;;;;;8.07;2.28;;;13.30;99.90;;;;;;4967257;28;20126;-63
2022/09/20 18:20:47;;;;;;;7.18;2.17;;;13.20;99.90;;;;;;4967461;28;20113;-62
2022/09/20 18:23:15;;;;;;;6.05;2.03;;;13.10;99.90;;;;;;4953911;28;20175;-63
2022/09/20 18:28:27;;;;;;;7.63;1.70;;;12.90;99.90;;;;;;4964311;28;20058;-63
2022/09/20 18:31:02;;;;;;;8.20;2.13;;;12.80;99.90;;;;;;4965623;28;20455;-62
2022/09/20 18:33:29;;;;;;;7.32;2.30;;;12.70;99.90;;;;;;4966914;28;20130;-63
2022/09/20 18:36:01;;;;;;;4.38;1.75;;;12.60;99.90;;;;;;4964698;28;20043;-63
2022/09/20 18:38:29;;;;;;;6.13;2.25;;;12.50;99.90;;;;;;4950368;28;20086;-63
2022/09/20 18:40:59;;;;;;;7.88;2.03;;;12.50;99.90;;;;;;4965005;28;20554;-62
2022/09/20 18:43:28;;;;;;;6.20;1.95;;;12.40;99.90;;;;;;4964408;28;20050;-63
2022/09/20 18:45:56;;;;;;;2.90;1.73;;;12.40;99.90;;;;;;4947098;28;20137;-63
2022/09/20 18:48:23;;;;;;;5.43;2.30;;;12.30;99.90;;;;;;4965368;28;20495;-63
2022/09/20 18:50:57;;;;;;;8.45;2.00;;;12.30;99.90;;;;;;4945544;28;20129;-63
2022/09/20 18:53:26;;;;;;;8.90;2.30;;;12.20;99.90;;;;;;4968311;28;20091;-62
2022/09/20 18:55:54;;;;;;;10.82;2.17;;;12.20;99.90;;;;;;4961942;28;20106;-63
2022/09/20 18:58:23;;;;;;;6.47;2.33;;;12.10;99.90;;;;;;4950185;28;20113;-62
2022/09/20 19:01:05;;;;;;;7.43;1.95;;;12.10;99.90;;;;;;4965953;28;20042;-62
2022/09/20 19:03:48;;;;;;;7.57;2.13;;;12.00;99.90;;;;;;4963672;28;20415;-61
2022/09/20 19:06:18;;;;;;;11.68;2.22;;;12.00;99.90;;;;;;4963543;28;20101;-62
2022/09/20 19:08:56;;;;;;;6.57;2.40;;;11.90;99.90;;;;;;4965320;28;20127;-63
2022/09/20 19:11:30;;;;;;;5.47;1.80;;;11.90;99.90;;;;;;4967597;28;20090;-62
2022/09/20 19:14:02;;;;;;;4.45;2.45;;;11.80;99.90;;;;;;4967875;28;20470;-62
2022/09/20 19:16:35;;;;;;;7.68;2.35;;;11.80;99.90;;;;;;4953269;28;20050;-63
2022/09/20 19:19:19;;;;;;;6.03;2.17;;;11.60;99.90;;;;;;4969754;28;20162;-61
2022/09/20 19:21:56;;;;;;;5.88;2.55;;;11.60;99.90;;;;;;4973970;28;20046;-62
2022/09/20 19:24:33;;;;;;;10.85;2.42;;;11.50;99.90;;;;;;4951898;28;20050;-62
2022/09/20 19:27:02;;;;;;;7.32;2.53;;;11.50;99.90;;;;;;4951680;28;20137;-62
2022/09/20 19:29:29;;;;;;;7.78;2.17;;;11.40;99.90;;;;;;4951393;28;20050;-62
2022/09/20 19:31:59;;;;;;;8.48;3.60;;;11.40;99.90;;;;;;4955145;28;20050;-62
2022/09/20 19:34:28;;;;;;;6.93;2.08;;;11.40;99.90;;;;;;4969110;28;20043;-62
2022/09/20 19:37:09;;;;;;;8.68;2.55;;;11.30;99.90;;;;;;4954918;28;20138;-62
2022/09/20 19:39:47;;;;;;;5.78;2.92;;;11.20;99.90;;;;;;4967920;28;20046;-62
2022/09/20 19:42:24;;;;;;;8.05;2.85;;;11.20;99.90;;;;;;4949547;28;20150;-63
2022/09/20 19:45:00;;;;;;;9.82;3.15;;;11.10;99.90;;;;;;4949120;28;20050;-62
2022/09/20 19:47:42;;;;;;;8.82;3.05;;;11.10;99.90;;;;;;4973068;28;20051;-62
2022/09/20 19:50:15;;;;;;;15.02;5.07;;;11.00;99.90;;;;;;4952095;28;20110;-63
2022/09/20 19:52:43;;;;;;;14.85;6.43;;;11.00;99.90;;;;;;4968191;28;20398;-62
2022/09/20 19:55:12;;;;;;;11.73;6.10;;;10.90;99.90;;;;;;4949825;28;20047;-60
2022/09/20 19:57:45;;;;;;;9.82;5.07;;;10.90;99.90;;;;;;4951081;28;20097;-62
2022/09/20 20:00:14;;;;;;;8.98;4.53;;;10.90;99.90;;;;;;4953619;28;20050;-62
2022/09/20 20:02:42;;;;;;;8.73;4.22;;;10.90;99.90;;;;;;4951341;28;20047;-62
2022/09/20 20:05:12;;;;;;;11.60;5.05;;;10.90;99.90;;;;;;4948987;28;20090;-62
2022/09/20 20:07:49;;;;;;;12.05;4.78;;;10.80;99.90;;;;;;4953495;28;20055;-62
2022/09/20 20:10:23;;;;;;;8.88;4.65;;;10.80;99.90;;;;;;4969327;28;20556;-61
2022/09/20 20:12:59;;;;;;;8.63;4.28;;;10.70;99.90;;;;;;4968412;28;20050;-62
2022/09/20 20:15:42;;;;;;;7.10;3.75;;;10.70;99.90;;;;;;4952653;28;20059;-63
2022/09/20 20:18:17;;;;;;;6.75;3.70;;;10.60;99.90;;;;;;4968814;28;20066;-62
2022/09/20 20:20:48;;;;;;;7.50;3.78;;;10.60;99.90;;;;;;4966710;28;20094;-63
2022/09/20 20:23:39;;;;;;;7.10;4.47;;;10.50;99.90;;;;;;4949881;28;20124;-63
2022/09/20 20:26:08;;;;;;;11.73;5.55;;;10.50;99.90;;;;;;4965597;28;20154;-62
2022/09/20 20:28:37;;;;;;;12.63;5.60;;;10.50;99.90;;;;;;4947436;28;20051;-63
2022/09/20 20:31:05;;;;;;;10.38;5.93;;;10.40;99.90;;;;;;4949239;28;20109;-63
2022/09/20 20:33:32;;;;;;;11.75;5.57;;;10.40;99.90;;;;;;4967878;28;20055;-62
2022/09/20 20:36:01;;;;;;;14.13;6.80;;;10.40;99.90;;;;;;4967169;28;20454;-62
2022/09/20 20:38:28;;;;;;;13.35;6.57;;;10.40;99.90;;;;;;4953010;28;20086;-62
2022/09/20 20:41:02;;;;;;;14.02;7.43;;;10.30;99.90;;;;;;4966837;28;20058;-63
2022/09/20 20:43:29;;;;;;;16.05;6.88;;;10.30;99.90;;;;;;4967906;28;20176;-63
2022/09/20 20:45:57;;;;;;;17.30;7.38;;;10.30;99.90;;;;;;4969515;28;20116;-62
2022/09/20 20:48:24;;;;;;;13.55;6.03;;;10.20;99.90;;;;;;4950155;28;20153;-63
2022/09/20 20:51:02;;;;;;;9.88;5.20;;;10.20;99.90;;;;;;4948649;28;20078;-64
2022/09/20 20:53:31;;;;;;;10.85;5.70;;;10.20;99.90;;;;;;4967365;28;20139;-66
2022/09/20 20:56:06;;;;;;;8.30;4.97;;;10.10;99.90;;;;;;4966376;28;20049;-62
2022/09/20 20:58:35;;;;;;;9.90;4.40;;;10.00;99.90;;;;;;4970221;28;20494;-63
2022/09/20 21:01:11;;;;;;;8.48;4.53;;;10.00;99.90;;;;;;4967853;28;20051;-63
2022/09/20 21:03:39;;;;;;;11.85;5.03;;;10.00;99.90;;;;;;4947637;28;20514;-63
2022/09/20 21:06:07;;;;;;;7.50;3.92;;;9.90;99.90;;;;;;4969738;28;20109;-62
2022/09/20 21:08:36;;;;;;;12.43;4.45;;;9.90;99.90;;;;;;4967784;28;20109;-62
2022/09/20 21:11:05;;;;;;;10.82;4.82;;;9.80;99.90;;;;;;4968047;28;20047;-62
2022/09/20 21:13:32;;;;;;;12.23;4.68;;;9.80;99.90;;;;;;4971334;28;20078;-62
2022/09/20 21:16:04;;;;;;;8.80;4.18;;;9.70;99.90;;;;;;4956355;28;20058;-63
2022/09/20 21:18:33;;;;;;;8.75;4.53;;;9.70;99.90;;;;;;4974668;28;20057;-61
2022/09/20 21:20:59;;;;;;;7.93;4.20;;;9.70;99.90;;;;;;4989925;28;20058;-62
2022/09/20 21:23:26;;;;;;;7.18;4.00;;;9.70;99.90;;;;;;4973875;28;20051;-62
2022/09/20 21:26:07;;;;;;;9.48;3.47;;;9.60;99.90;;;;;;4974801;28;20051;-63
2022/09/20 21:28:36;;;;;;;9.45;4.72;;;9.60;99.90;;;;;;4957517;28;20133;-62
2022/09/20 21:31:04;;;;;;;8.30;4.43;;;9.60;99.90;;;;;;4973795;28;20049;-62
2022/09/20 21:33:34;;;;;;;9.30;4.40;;;9.60;99.90;;;;;;4973676;28;20054;-61
2022/09/20 21:36:01;;;;;;;8.00;3.43;;;9.50;99.90;;;;;;4974279;28;20059;-62
2022/09/20 21:38:29;;;;;;;8.27;4.25;;;9.50;99.90;;;;;;4956507;28;20098;-62
2022/09/20 21:41:04;;;;;;;5.50;3.25;;;9.40;99.90;;;;;;4974265;28;20058;-62
2022/09/20 21:43:31;;;;;;;5.95;3.40;;;9.40;99.90;;;;;;4974471;28;20078;-61
2022/09/20 21:45:58;;;;;;;6.78;3.30;;;9.30;99.90;;;;;;4973854;28;20051;-62
2022/09/20 21:48:25;;;;;;;7.43;3.97;;;9.30;99.90;;;;;;4957226;28;20113;-63
2022/09/20 21:51:01;;;;;;;6.93;4.00;;;9.30;99.90;;;;;;4973946;28;20061;-62
2022/09/20 21:53:28;;;;;;;7.32;4.03;;;9.20;99.90;;;;;;4974549;28;20106;-63
2022/09/20 21:55:59;;;;;;;10.30;4.57;;;9.20;99.90;;;;;;4974527;28;20093;-62
2022/09/20 21:58:26;;;;;;;;;;;9.20;99.90;;;;;;4973742;28;20509;-61
2022/09/20 22:00:57;;;;;;;8.05;3.30;;;9.20;99.90;;;;;;4974062;28;19929;-62
2022/09/20 22:03:24;;;;;;;11.38;3.88;;;9.10;99.90;;;;;;4974119;28;20051;-62
2022/09/20 22:05:51;;;;;;;6.10;3.63;;;9.10;99.90;;;;;;4973416;28;20078;-62
2022/09/20 22:08:19;;;;;;;5.47;3.45;;;9.10;99.90;;;;;;4973744;28;20102;-63
2022/09/20 22:10:55;;;;;;;6.15;3.28;;;9.00;99.90;;;;;;4974096;28;20117;-62
2022/09/20 22:13:22;;;;;;;7.43;3.08;;;9.00;99.90;;;;;;4955852;28;20055;-62
2022/09/20 22:15:49;;;;;;;6.53;2.75;;;9.00;99.90;;;;;;4974155;28;20058;-61
2022/09/20 22:18:16;;;;;;;6.70;3.13;;;9.00;99.90;;;;;;4956539;28;20114;-63
2022/09/20 22:20:44;;;;;;;5.68;3.40;;;9.00;99.90;;;;;;4973556;28;20443;-61
2022/09/20 22:23:12;;;;;;;5.90;2.92;;;8.90;99.90;;;;;;4974114;28;20047;-61
2022/09/20 22:25:41;;;;;;;7.00;3.38;;;8.90;99.90;;;;;;4973727;28;20051;-62
2022/09/20 22:28:07;;;;;;;8.27;3.00;;;8.90;99.90;;;;;;4973295;28;20051;-62
2022/09/20 22:30:34;;;;;;;6.15;2.80;;;8.80;99.90;;;;;;4973747;28;20518;-61
2022/09/20 22:33:04;;;;;;;6.22;2.90;;;8.80;99.90;;;;;;4973058;28;20402;-62
2022/09/20 22:35:31;;;;;;;8.88;3.15;;;8.80;99.90;;;;;;4972306;28;20055;-62
2022/09/20 22:37:57;;;;;;;6.00;3.35;;;8.70;99.90;;;;;;4973784;28;20054;-62
2022/09/20 22:40:24;;;;;;;5.90;2.90;;;8.70;99.90;;;;;;4955441;28;20061;-62
2022/09/20 22:42:53;;;;;;;5.70;2.60;;;8.70;99.90;;;;;;4973748;28;20490;-62
2022/09/20 22:45:20;;;;;;;6.85;3.15;;;8.60;99.90;;;;;;4974265;28;20062;-61
2022/09/20 22:47:47;;;;;;;6.05;2.72;;;8.60;99.90;;;;;;4977127;28;20062;-63
2022/09/20 22:50:14;;;;;;;6.35;2.75;;;8.50;99.90;;;;;;4977461;28;20067;-63
2022/09/20 22:52:41;;;;;;;4.72;2.40;;;8.50;99.90;;;;;;4960087;28;20055;-62
2022/09/20 22:55:09;;;;;;;3.00;1.73;;;8.50;99.90;;;;;;4959471;28;20073;-62
2022/09/20 22:57:36;;;;;;;4.57;2.03;;;8.50;99.90;;;;;;4977366;28;20058;-62
2022/09/20 23:00:05;;;;;;;4.65;2.30;;;8.50;99.90;;;;;;4977077;28;20495;-63
2022/09/20 23:02:32;;;;;;;4.25;2.20;;;8.50;99.90;;;;;;4976723;28;20202;-63
2022/09/20 23:04:59;;;;;;;4.28;2.35;;;8.40;99.90;;;;;;4977336;28;20058;-63
2022/09/20 23:07:26;;;;;;;5.93;2.47;;;8.40;99.90;;;;;;4959788;28;20065;-62
2022/09/20 23:09:53;;;;;;;6.38;2.63;;;8.40;99.90;;;;;;4976480;28;20057;-62
2022/09/20 23:12:20;;;;;;;6.30;3.08;;;8.30;99.90;;;;;;4977043;28;20483;-62
2022/09/20 23:14:47;;;;;;;7.75;3.38;;;8.30;99.90;;;;;;4959599;28;20410;-62
2022/09/20 23:17:15;;;;;;;7.47;2.90;;;8.30;99.90;;;;;;4976612;28;20409;-62
2022/09/20 23:19:42;;;;;;;4.40;2.67;;;8.30;99.90;;;;;;4976938;28;20055;-63
2022/09/20 23:22:09;;;;;;;8.77;3.10;;;8.30;99.90;;;;;;4976891;28;20430;-63
2022/09/20 23:24:36;;;;;;;6.65;3.15;;;8.30;99.90;;;;;;4976345;28;20063;-63
2022/09/20 23:27:03;;;;;;;8.10;3.03;;;8.30;99.90;;;;;;4976883;28;20138;-63
2022/09/20 23:29:31;;;;;;;6.40;3.33;;;8.20;99.90;;;;;;4958674;28;20137;-62
2022/09/20 23:31:58;;;;;;;7.20;3.42;;;8.20;99.90;;;;;;4959885;28;20410;-62
2022/09/20 23:34:26;;;;;;;5.72;2.78;;;8.20;99.90;;;;;;4976936;28;20070;-62
2022/09/20 23:36:53;;;;;;;6.20;3.20;;;8.20;99.90;;;;;;4958852;28;20061;-62
2022/09/20 23:39:20;;;;;;;5.53;3.17;;;8.10;99.90;;;;;;4976286;28;20110;-62
2022/09/20 23:41:47;;;;;;;8.85;3.40;;;8.10;99.90;;;;;;4976904;28;20058;-63
2022/09/20 23:44:14;;;;;;;8.15;3.30;;;8.10;99.90;;;;;;4975852;28;20047;-62
2022/09/20 23:46:41;;;;;;;6.68;3.42;;;8.10;99.90;;;;;;4976630;28;20057;-63
2022/09/20 23:49:08;;;;;;;6.95;3.45;;;8.00;99.90;;;;;;4976380;28;20069;-63
2022/09/20 23:51:37;;;;;;;5.03;3.13;;;8.00;99.90;;;;;;4975526;28;20050;-62
2022/09/20 23:54:04;;;;;;;4.40;2.70;;;8.00;99.90;;;;;;4958799;28;20051;-62
2022/09/20 23:56:32;;;;;;;4.63;2.80;;;8.00;99.90;;;;;;4975913;28;20058;-63
2022/09/20 23:58:59;;;;;;;7.88;3.38;;;7.90;99.90;;;;;;4975798;28;20090;-62
